Terminal Aerodrome Forecast
Issued by NWS North Platte, NE

Home | Current Version | Previous Version | Text Only | Print | Product List | Glossary On
Versions: 1 2 3 4 5 6 7 8 9 10 11 12 13 14 15 16 17 18 19 20 21 22 23 24 25 26 27 28 29 30 31
794
FTUS43 KLBF 251720
TAFLBF
TAF
KLBF 251720Z 2518/2618 VRB05KT P6SM FEW250
     FM260300 11007KT 5SM BR SCT250
     FM260600 13007KT 3SM BR SCT005 BKN150
     FM260900 13003KT 1SM BR OVC004
     FM261200 15003KT 1/2SM FG VV003
     FM261400 16003KT 3SM BR OVC005
     FM261600 16005KT P6SM OVC010=

USA.gov is the U.S. government's official web portal to all federal, state and local government web resources and services.